createdAt,value
2019-01-08T00:05:55.578Z,9.00
2019-01-08T00:09:59.452Z,9.00
2019-01-08T00:22:10.279Z,8.90
2019-01-08T00:26:14.067Z,8.90
2019-01-08T00:30:17.949Z,8.90
2019-01-08T00:34:21.869Z,8.90
2019-01-08T00:38:25.773Z,9.10
2019-01-08T00:42:30.067Z,9.00
2019-01-08T00:46:34.291Z,8.90
2019-01-08T00:50:38.628Z,8.90
2019-01-08T00:54:42.937Z,9.00
2019-01-08T00:58:51.438Z,9.00
2019-01-08T01:06:55.974Z,9.00
2019-01-08T01:15:03.258Z,9.00
2019-01-08T01:27:13.823Z,9.10
2019-01-08T01:35:22.003Z,9.10
2019-01-08T01:39:26.502Z,9.10
2019-01-08T01:43:30.448Z,9.20
2019-01-08T01:47:34.358Z,9.20
2019-01-08T01:51:38.436Z,9.20
2019-01-08T01:55:42.284Z,9.20
2019-01-08T01:59:46.173Z,9.20
2019-01-08T02:03:49.969Z,9.30
2019-01-08T02:07:53.931Z,9.30
2019-01-08T02:16:01.291Z,9.20
2019-01-08T02:20:05.367Z,9.30
2019-01-08T02:32:16.135Z,9.20
2019-01-08T02:36:21.028Z,9.20
2019-01-08T02:40:25.091Z,9.20
2019-01-08T02:48:32.986Z,8.60
2019-01-08T03:00:43.742Z,8.30
2019-01-08T03:04:47.614Z,8.30
2019-01-08T03:12:55.253Z,8.50
2019-01-08T03:16:59.412Z,8.50
2019-01-08T03:21:03.305Z,8.60
2019-01-08T03:25:07.319Z,8.60
2019-01-08T03:33:14.655Z,8.60
2019-01-08T03:45:25.498Z,8.60
2019-01-08T03:49:29.300Z,8.60
2019-01-08T03:53:33.395Z,8.60
2019-01-08T04:01:40.742Z,8.60
2019-01-08T04:13:51.412Z,8.30
2019-01-08T04:17:55.267Z,8.30
2019-01-08T04:21:59.106Z,8.40
2019-01-08T04:26:03.315Z,8.40
2019-01-08T04:42:19.768Z,8.40
2019-01-08T04:46:23.695Z,8.40
2019-01-08T04:50:27.826Z,8.40
2019-01-08T04:54:34.577Z,8.50
2019-01-08T04:58:38.501Z,8.40
2019-01-08T05:02:42.416Z,8.40
2019-01-08T05:06:46.318Z,8.50
2019-01-08T05:10:50.695Z,8.60
2019-01-08T05:14:54.928Z,8.60
2019-01-08T05:23:02.390Z,8.40
2019-01-08T05:31:10.375Z,8.40
2019-01-08T05:35:14.222Z,8.40
2019-01-08T05:39:19.570Z,8.40
2019-01-08T05:47:26.929Z,8.30
2019-01-08T05:51:31.072Z,8.30
2019-01-08T05:55:35.064Z,8.30
2019-01-08T06:03:42.513Z,8.30
2019-01-08T06:07:46.321Z,8.30
2019-01-08T06:11:50.363Z,8.30
2019-01-08T06:19:57.627Z,8.40
2019-01-08T06:24:01.539Z,8.40
2019-01-08T06:28:05.816Z,8.40
2019-01-08T06:40:17.560Z,8.40
2019-01-08T06:52:28.709Z,8.40
2019-01-08T06:56:32.592Z,8.40
2019-01-08T07:20:54.048Z,8.20
2019-01-08T07:24:57.956Z,8.20
2019-01-08T07:29:01.884Z,8.30
2019-01-08T07:41:13.930Z,8.30
2019-01-08T07:45:19.581Z,8.30
2019-01-08T07:49:23.466Z,8.40
2019-01-08T07:53:27.403Z,8.40
2019-01-08T08:01:35.016Z,8.40
2019-01-08T08:05:39.047Z,8.40
2019-01-08T08:09:43.295Z,8.40
2019-01-08T08:13:47.479Z,8.50
2019-01-08T08:25:58.651Z,8.60
2019-01-08T08:34:06.320Z,8.60
2019-01-08T08:38:10.351Z,8.60
2019-01-08T08:42:15.321Z,8.70
2019-01-08T08:46:19.210Z,8.80
2019-01-08T08:50:23.282Z,8.80
2019-01-08T08:54:27.699Z,8.70
2019-01-08T09:02:35.072Z,8.80
2019-01-08T09:06:38.970Z,8.90
2019-01-08T09:14:46.256Z,9.00
2019-01-08T09:18:50.576Z,9.10
2019-01-08T09:31:01.562Z,8.90
2019-01-08T09:39:09.432Z,8.80
2019-01-08T09:43:13.713Z,8.70
2019-01-08T09:51:21.077Z,8.80
2019-01-08T09:55:25.023Z,8.80
2019-01-08T09:59:29.135Z,8.70
2019-01-08T10:03:33.284Z,8.70
2019-01-08T10:07:37.270Z,8.70
2019-01-08T10:19:48.124Z,8.80
2019-01-08T10:36:02.223Z,9.10
2019-01-08T10:40:06.691Z,9.20
2019-01-08T10:56:20.880Z,9.00
2019-01-08T11:04:28.427Z,9.00
2019-01-08T11:08:32.300Z,8.90
2019-01-08T11:12:36.122Z,9.00
2019-01-08T11:20:43.723Z,8.90
2019-01-08T11:28:51.775Z,9.00
2019-01-08T11:32:56.145Z,9.10
2019-01-08T11:41:03.597Z,9.10
2019-01-08T11:45:09.673Z,9.10
2019-01-08T11:53:17.185Z,9.00
2019-01-08T11:57:20.964Z,9.00
2019-01-08T12:01:24.898Z,9.10
2019-01-08T12:05:28.908Z,9.20
2019-01-08T12:09:32.705Z,9.20
2019-01-08T12:17:40.075Z,9.30
2019-01-08T12:25:47.516Z,9.40
2019-01-08T12:29:51.575Z,9.60
2019-01-08T12:37:59.509Z,9.40
2019-01-08T12:42:03.582Z,9.50
2019-01-08T12:46:07.763Z,9.40
2019-01-08T12:58:18.628Z,9.60
2019-01-08T13:06:25.924Z,9.40
2019-01-08T13:14:33.123Z,9.10
2019-01-08T13:18:36.986Z,9.00
2019-01-08T13:22:40.822Z,8.90
2019-01-08T13:26:44.597Z,8.80
2019-01-08T13:30:48.828Z,8.80
2019-01-08T13:43:02.540Z,8.90
2019-01-08T13:47:06.654Z,8.90
2019-01-08T13:59:17.822Z,9.10
2019-01-08T14:03:21.846Z,9.10
2019-01-08T14:07:25.568Z,9.10
2019-01-08T14:11:29.311Z,9.20
2019-01-08T14:15:33.278Z,9.20
2019-01-08T14:19:37.022Z,9.10
2019-01-08T14:23:40.731Z,9.20
2019-01-08T14:27:44.596Z,9.20
2019-01-08T14:31:48.390Z,9.10
2019-01-08T14:35:52.130Z,9.00
2019-01-08T14:39:55.842Z,9.00
2019-01-08T14:43:59.579Z,9.00
2019-01-08T14:48:04.207Z,9.00
2019-01-08T14:52:08.255Z,8.90
2019-01-08T14:56:12.872Z,8.90
2019-01-08T15:00:17.026Z,8.90
2019-01-08T15:04:20.732Z,8.80
2019-01-08T15:08:24.462Z,8.70
2019-01-08T15:12:28.179Z,8.70
2019-01-08T15:16:31.907Z,8.70
2019-01-08T15:20:35.618Z,8.70
2019-01-08T15:24:39.374Z,8.70
2019-01-08T15:28:43.078Z,8.70
2019-01-08T15:32:46.822Z,8.70
2019-01-08T15:36:50.532Z,8.70
2019-01-08T15:40:54.378Z,8.60
2019-01-08T15:44:58.102Z,8.60
2019-01-08T15:49:01.919Z,8.60
2019-01-08T15:53:05.634Z,8.40
2019-01-08T15:57:10.450Z,8.40
2019-01-08T16:01:14.162Z,8.40
2019-01-08T16:05:18.263Z,8.30
2019-01-08T16:09:21.974Z,8.40
2019-01-08T16:13:25.718Z,8.30
2019-01-08T16:17:29.557Z,8.30
2019-01-08T16:21:33.298Z,8.30
2019-01-08T16:25:37.020Z,8.20
2019-01-08T16:29:40.754Z,8.20
2019-01-08T16:33:44.723Z,8.30
2019-01-08T16:37:48.542Z,8.30
2019-01-08T16:41:52.254Z,8.30
2019-01-08T16:45:57.904Z,8.20
2019-01-08T16:50:02.561Z,8.30
2019-01-08T16:54:06.305Z,8.30
2019-01-08T16:58:10.022Z,8.30
2019-01-08T17:02:14.026Z,8.30
2019-01-08T17:06:17.750Z,8.30
2019-01-08T17:10:21.798Z,8.30
2019-01-08T17:22:32.179Z,8.20
2019-01-08T17:26:35.994Z,8.20
2019-01-08T17:30:39.711Z,8.20
2019-01-08T17:34:43.446Z,8.10
2019-01-08T17:38:47.206Z,8.20
2019-01-08T17:46:54.375Z,8.20
2019-01-08T17:50:58.266Z,8.20
2019-01-08T17:55:01.993Z,7.80
2019-01-08T17:59:10.330Z,7.70
2019-01-08T18:03:14.046Z,7.70
2019-01-08T18:11:21.468Z,7.80
2019-01-08T18:15:25.547Z,7.80
2019-01-08T18:19:29.497Z,7.80
2019-01-08T18:31:40.935Z,7.80
2019-01-08T18:35:45.044Z,7.80
2019-01-08T18:39:49.067Z,7.70
2019-01-08T18:56:04.374Z,7.60
2019-01-08T19:04:11.854Z,7.60
2019-01-08T19:08:15.887Z,7.60
2019-01-08T19:12:24.984Z,7.60
2019-01-08T19:16:28.794Z,7.60
2019-01-08T19:20:32.794Z,7.60
2019-01-08T19:24:36.924Z,7.60
2019-01-08T19:28:40.829Z,7.60
2019-01-08T19:36:48.263Z,7.50
2019-01-08T19:40:52.499Z,7.50
2019-01-08T20:01:10.717Z,7.40
2019-01-08T20:09:25.181Z,7.30
2019-01-08T20:13:23.766Z,7.30
2019-01-08T20:21:30.888Z,7.30
2019-01-08T20:25:34.662Z,7.40
2019-01-08T20:33:42.430Z,7.40
2019-01-08T20:37:46.260Z,7.30
2019-01-08T20:41:50.132Z,7.10
2019-01-08T20:45:53.904Z,7.00
2019-01-08T20:49:57.718Z,7.00
2019-01-08T20:54:02.426Z,7.00
2019-01-08T21:06:12.947Z,7.10
2019-01-08T21:10:16.972Z,7.10
2019-01-08T21:22:27.767Z,7.10
2019-01-08T21:26:31.502Z,7.10
2019-01-08T21:30:35.427Z,7.10
2019-01-08T21:34:44.152Z,7.10
2019-01-08T21:38:44.967Z,7.10
2019-01-08T21:42:50.358Z,7.20
2019-01-08T21:46:54.186Z,7.30
2019-01-08T21:50:58.347Z,7.30
2019-01-08T21:59:05.979Z,7.40
2019-01-08T22:03:09.912Z,7.30
2019-01-08T22:07:14.028Z,7.10
2019-01-08T22:11:17.998Z,7.00
2019-01-08T22:15:21.909Z,7.10
2019-01-08T22:19:25.773Z,7.10
2019-01-08T22:27:33.122Z,7.20
2019-01-08T22:31:37.026Z,7.20
2019-01-08T22:43:49.294Z,7.20
2019-01-08T22:47:56.178Z,7.20
2019-01-08T22:52:00.016Z,7.20
2019-01-08T22:56:04.243Z,7.20
2019-01-08T23:08:25.203Z,7.10
2019-01-08T23:12:29.023Z,7.10
2019-01-08T23:16:33.047Z,7.00
2019-01-08T23:20:36.842Z,7.00
2019-01-08T23:24:40.707Z,7.00
2019-01-08T23:28:45.325Z,7.00
2019-01-08T23:32:49.375Z,7.10
2019-01-08T23:40:56.822Z,7.20
2019-01-08T23:45:00.770Z,7.10
2019-01-08T23:49:04.736Z,7.10
2019-01-08T23:57:16.025Z,7.10
